createdAt,value
2016-08-26T00:00:37.506Z,968.41
2016-08-26T00:01:37.507Z,968.41
2016-08-26T00:02:37.506Z,968.43
2016-08-26T00:03:37.506Z,968.4
2016-08-26T00:04:37.510Z,968.4
2016-08-26T00:05:37.507Z,968.38
2016-08-26T00:06:37.510Z,968.38
2016-08-26T00:07:37.511Z,968.38
2016-08-26T00:08:37.510Z,968.4
2016-08-26T00:09:37.511Z,968.42
2016-08-26T00:10:37.510Z,968.35
2016-08-26T00:11:37.515Z,968.39
2016-08-26T00:12:37.515Z,968.39
2016-08-26T00:13:37.515Z,968.38
2016-08-26T00:14:37.515Z,968.37
2016-08-26T00:15:37.515Z,968.38
2016-08-26T00:16:37.515Z,968.39
2016-08-26T00:17:37.518Z,968.4
2016-08-26T00:18:37.519Z,968.45
2016-08-26T00:19:37.519Z,968.42
2016-08-26T00:20:37.520Z,968.45
2016-08-26T00:21:37.523Z,968.45
2016-08-26T00:22:37.530Z,968.42
2016-08-26T00:23:37.522Z,968.48
2016-08-26T00:24:37.527Z,968.49
2016-08-26T00:25:37.523Z,968.45
2016-08-26T00:26:37.523Z,968.43
2016-08-26T00:27:37.523Z,968.48
2016-08-26T00:28:37.526Z,968.44
2016-08-26T00:29:37.526Z,968.48
2016-08-26T00:30:37.527Z,968.44
2016-08-26T00:31:37.523Z,968.44
2016-08-26T00:32:37.527Z,968.45
2016-08-26T00:33:37.534Z,968.42
2016-08-26T00:34:37.679Z,968.45
2016-08-26T00:35:37.531Z,968.4
2016-08-26T00:36:37.531Z,968.45
2016-08-26T00:37:37.531Z,968.44
2016-08-26T00:38:37.530Z,968.42
2016-08-26T00:39:37.531Z,968.46
2016-08-26T00:40:37.536Z,968.47
2016-08-26T00:41:37.536Z,968.46
2016-08-26T00:42:37.536Z,968.45
2016-08-26T00:43:37.535Z,968.47
2016-08-26T00:44:37.535Z,968.49
2016-08-26T00:45:37.536Z,968.48
2016-08-26T00:46:37.535Z,968.48
2016-08-26T00:47:37.540Z,968.51
2016-08-26T00:48:37.539Z,968.5
2016-08-26T00:49:37.539Z,968.52
2016-08-26T00:50:37.540Z,968.49
2016-08-26T00:51:37.543Z,968.5
2016-08-26T00:52:37.540Z,968.49
2016-08-26T00:53:37.539Z,968.49
2016-08-26T00:54:37.544Z,968.49
2016-08-26T00:55:37.548Z,968.46
2016-08-26T00:56:37.547Z,968.52
2016-08-26T00:57:37.544Z,968.49
2016-08-26T00:58:37.544Z,968.49
2016-08-26T00:59:37.545Z,968.48
2016-08-26T01:00:37.548Z,968.49
2016-08-26T01:01:37.548Z,968.5
2016-08-26T01:02:37.549Z,968.52
2016-08-26T01:03:37.548Z,968.47
2016-08-26T01:04:37.549Z,968.51
2016-08-26T01:05:37.549Z,968.47
2016-08-26T01:06:37.548Z,968.49
2016-08-26T01:07:37.549Z,968.52
2016-08-26T01:08:37.553Z,968.48
2016-08-26T01:09:37.553Z,968.51
2016-08-26T01:10:37.557Z,968.49
2016-08-26T01:11:37.553Z,968.55
2016-08-26T01:12:37.549Z,968.52
2016-08-26T01:13:37.554Z,968.51
2016-08-26T01:14:37.554Z,968.52
2016-08-26T01:15:37.553Z,968.51
2016-08-26T01:16:37.557Z,968.54
2016-08-26T01:17:37.558Z,968.56
2016-08-26T01:18:37.557Z,968.56
2016-08-26T01:19:37.557Z,968.58
2016-08-26T01:20:37.558Z,968.59
2016-08-26T01:21:37.557Z,968.61
2016-08-26T01:22:37.559Z,968.6
2016-08-26T01:23:37.561Z,968.61
2016-08-26T01:24:37.557Z,968.61
2016-08-26T01:25:37.562Z,968.59
2016-08-26T01:26:37.561Z,968.61
2016-08-26T01:27:37.563Z,968.6
2016-08-26T01:28:37.562Z,968.63
2016-08-26T01:29:37.562Z,968.64
2016-08-26T01:30:37.562Z,968.69
2016-08-26T01:31:37.565Z,968.68
2016-08-26T01:32:37.565Z,968.71
2016-08-26T01:33:37.566Z,968.71
2016-08-26T01:34:37.566Z,968.72
2016-08-26T01:35:37.567Z,968.72
2016-08-26T01:36:37.565Z,968.72
2016-08-26T01:37:37.566Z,968.7
2016-08-26T01:38:37.570Z,968.72
2016-08-26T01:39:37.570Z,968.76
2016-08-26T01:40:37.570Z,968.78
2016-08-26T01:41:37.570Z,968.79
2016-08-26T01:42:37.571Z,968.77
2016-08-26T01:43:37.571Z,968.78
2016-08-26T01:44:37.571Z,968.81
2016-08-26T01:45:37.571Z,968.8
2016-08-26T01:46:37.570Z,968.8
2016-08-26T01:47:37.571Z,968.83
2016-08-26T01:48:37.574Z,968.78
2016-08-26T01:49:37.575Z,968.83
2016-08-26T01:50:37.571Z,968.83
2016-08-26T01:51:37.574Z,968.8
2016-08-26T01:52:37.575Z,968.82
2016-08-26T01:53:37.574Z,968.83
2016-08-26T01:54:37.579Z,968.83
2016-08-26T01:55:37.579Z,968.8
2016-08-26T01:56:37.579Z,968.84
2016-08-26T01:57:37.579Z,968.81
2016-08-26T01:58:37.579Z,968.86
2016-08-26T01:59:37.579Z,968.84
2016-08-26T02:00:37.578Z,968.86
2016-08-26T02:01:37.583Z,968.84
2016-08-26T02:02:37.584Z,968.84
2016-08-26T02:03:37.583Z,968.9
2016-08-26T02:04:37.583Z,968.88
2016-08-26T02:05:37.583Z,968.91
2016-08-26T02:06:37.583Z,968.89
2016-08-26T02:07:37.583Z,968.86
2016-08-26T02:08:37.584Z,968.91
2016-08-26T02:09:37.584Z,968.87
2016-08-26T02:10:37.588Z,968.92
2016-08-26T02:11:37.587Z,968.93
2016-08-26T02:12:37.588Z,968.92
2016-08-26T02:13:37.584Z,968.93
2016-08-26T02:14:37.589Z,968.96
2016-08-26T02:15:37.588Z,968.9
2016-08-26T02:16:37.587Z,968.93
2016-08-26T02:17:37.588Z,968.9
2016-08-26T02:18:37.594Z,968.9
2016-08-26T02:19:37.593Z,968.91
2016-08-26T02:20:37.589Z,968.95
2016-08-26T02:21:37.592Z,968.97
2016-08-26T02:22:37.597Z,968.98
2016-08-26T02:23:37.592Z,968.98
2016-08-26T02:24:37.593Z,968.98
2016-08-26T02:25:37.593Z,968.95
2016-08-26T02:26:37.592Z,968.94
2016-08-26T02:27:37.592Z,968.93
2016-08-26T02:28:37.593Z,968.92
2016-08-26T02:29:37.597Z,968.93
2016-08-26T02:30:37.597Z,968.95
2016-08-26T02:31:37.596Z,968.97
2016-08-26T02:32:37.597Z,968.96
2016-08-26T02:33:37.596Z,968.99
2016-08-26T02:34:37.997Z,969.01
2016-08-26T02:35:37.597Z,968.98
2016-08-26T02:36:37.596Z,968.96
2016-08-26T02:37:37.601Z,968.98
2016-08-26T02:38:37.597Z,969
2016-08-26T02:39:37.601Z,969.03
2016-08-26T02:40:37.601Z,969.01
2016-08-26T02:41:37.601Z,969.04
2016-08-26T02:42:37.601Z,969.02
2016-08-26T02:43:37.601Z,969.08
2016-08-26T02:44:37.602Z,969.06
2016-08-26T02:45:37.601Z,969.05
2016-08-26T02:46:37.601Z,969.07
2016-08-26T02:47:37.602Z,969.08
2016-08-26T02:48:37.606Z,969.09
2016-08-26T02:49:37.606Z,969.08
2016-08-26T02:50:37.606Z,969.08
2016-08-26T02:51:37.605Z,969.08
2016-08-26T02:52:37.605Z,969.05
2016-08-26T02:53:37.606Z,969.06
2016-08-26T02:54:37.605Z,969.09
2016-08-26T02:55:37.606Z,969.07
2016-08-26T02:56:37.605Z,969.09
2016-08-26T02:57:37.606Z,969.06
2016-08-26T02:58:37.610Z,969.04
2016-08-26T02:59:37.610Z,969.06
2016-08-26T03:00:37.611Z,969.1
2016-08-26T03:01:37.609Z,969.12
2016-08-26T03:02:37.611Z,969.06
2016-08-26T03:03:37.611Z,969.08
2016-08-26T03:04:37.610Z,969.08
2016-08-26T03:05:37.610Z,969.09
2016-08-26T03:06:37.610Z,969.1
2016-08-26T03:07:37.615Z,969.07
2016-08-26T03:08:37.610Z,969.12
2016-08-26T03:09:37.614Z,969.14
2016-08-26T03:10:37.614Z,969.15
2016-08-26T03:11:37.614Z,969.17
2016-08-26T03:12:37.614Z,969.16
2016-08-26T03:13:37.614Z,969.15
2016-08-26T03:14:37.615Z,969.17
2016-08-26T03:15:37.614Z,969.17
2016-08-26T03:16:37.614Z,969.15
2016-08-26T03:17:37.615Z,969.14
2016-08-26T03:18:37.619Z,969.15
2016-08-26T03:19:37.615Z,969.19
2016-08-26T03:20:37.618Z,969.15
2016-08-26T03:21:37.619Z,969.15
2016-08-26T03:22:37.619Z,969.15
2016-08-26T03:23:37.619Z,969.16
2016-08-26T03:24:37.620Z,969.15
2016-08-26T03:25:37.619Z,969.16
2016-08-26T03:26:37.620Z,969.17
2016-08-26T03:27:37.620Z,969.22
2016-08-26T03:28:37.619Z,969.21
2016-08-26T03:29:37.624Z,969.21
2016-08-26T03:30:37.624Z,969.22
2016-08-26T03:31:37.624Z,969.23
2016-08-26T03:32:37.623Z,969.21
2016-08-26T03:33:37.624Z,969.21
2016-08-26T03:34:37.627Z,969.21
2016-08-26T03:35:37.625Z,969.18
2016-08-26T03:36:37.624Z,969.2
2016-08-26T03:37:37.625Z,969.26
2016-08-26T03:38:37.624Z,969.24
2016-08-26T03:39:37.629Z,969.29
2016-08-26T03:40:37.629Z,969.27
2016-08-26T03:41:37.627Z,969.28
2016-08-26T03:42:37.629Z,969.27
2016-08-26T03:43:37.629Z,969.26
2016-08-26T03:44:37.628Z,969.27
2016-08-26T03:45:37.624Z,969.26
2016-08-26T03:46:37.628Z,969.29
2016-08-26T03:47:37.628Z,969.28
2016-08-26T03:48:37.628Z,969.31
2016-08-26T03:49:37.628Z,969.32
2016-08-26T03:50:37.632Z,969.34
2016-08-26T03:51:37.628Z,969.35
2016-08-26T03:52:37.633Z,969.33
2016-08-26T03:53:37.632Z,969.32
2016-08-26T03:54:37.632Z,969.35
2016-08-26T03:55:37.633Z,969.36
2016-08-26T03:56:37.633Z,969.34
2016-08-26T03:57:37.633Z,969.38
2016-08-26T03:58:37.632Z,969.32
2016-08-26T03:59:37.634Z,969.33
2016-08-26T04:00:37.633Z,969.35
2016-08-26T04:01:37.634Z,969.35
2016-08-26T04:02:37.633Z,969.31
2016-08-26T04:03:37.633Z,969.35
2016-08-26T04:04:37.637Z,969.32
2016-08-26T04:05:37.637Z,969.34
2016-08-26T04:06:37.638Z,969.36
2016-08-26T04:07:37.637Z,969.36
2016-08-26T04:08:37.638Z,969.32
2016-08-26T04:09:37.637Z,969.33
2016-08-26T04:10:37.633Z,969.37
2016-08-26T04:11:37.637Z,969.34
2016-08-26T04:12:37.638Z,969.38
2016-08-26T04:13:37.644Z,969.34
2016-08-26T04:14:37.637Z,969.38
2016-08-26T04:15:37.637Z,969.37
2016-08-26T04:16:37.644Z,969.39
2016-08-26T04:17:37.637Z,969.37
2016-08-26T04:18:37.642Z,969.38
2016-08-26T04:19:37.640Z,969.39
2016-08-26T04:20:37.642Z,969.41
2016-08-26T04:21:37.641Z,969.41
2016-08-26T04:22:37.641Z,969.38
2016-08-26T04:23:37.642Z,969.42
2016-08-26T04:24:37.642Z,969.41
2016-08-26T04:25:37.642Z,969.43
2016-08-26T04:26:37.643Z,969.45
2016-08-26T04:27:37.642Z,969.49
2016-08-26T04:28:37.642Z,969.49
2016-08-26T04:29:37.642Z,969.54
2016-08-26T04:30:37.645Z,969.51
2016-08-26T04:31:37.646Z,969.54
2016-08-26T04:32:37.646Z,969.51
2016-08-26T04:33:37.646Z,969.51
2016-08-26T04:34:37.847Z,969.51
2016-08-26T04:35:37.647Z,969.48
2016-08-26T04:36:37.647Z,969.48
2016-08-26T04:37:37.646Z,969.47
2016-08-26T04:38:37.647Z,969.48
2016-08-26T04:39:37.647Z,969.48
2016-08-26T04:40:37.645Z,969.48
2016-08-26T04:41:37.647Z,969.5
2016-08-26T04:42:37.650Z,969.49
2016-08-26T04:43:37.648Z,969.49
2016-08-26T04:44:37.650Z,969.48
2016-08-26T04:45:37.650Z,969.48
2016-08-26T04:46:37.651Z,969.5
2016-08-26T04:47:37.650Z,969.5
2016-08-26T04:48:37.650Z,969.51
2016-08-26T04:49:37.651Z,969.53
2016-08-26T04:50:37.651Z,969.55
2016-08-26T04:51:37.651Z,969.55
2016-08-26T04:52:37.651Z,969.54
2016-08-26T04:53:37.650Z,969.53
2016-08-26T04:54:37.651Z,969.55
2016-08-26T04:55:37.651Z,969.58
2016-08-26T04:56:37.654Z,969.55
2016-08-26T04:57:37.652Z,969.6
2016-08-26T04:58:37.655Z,969.59
2016-08-26T04:59:37.655Z,969.59
2016-08-26T05:00:37.656Z,969.6
2016-08-26T05:01:37.655Z,969.62
2016-08-26T05:02:37.656Z,969.6
2016-08-26T05:03:37.656Z,969.58
2016-08-26T05:04:37.657Z,969.59
2016-08-26T05:05:37.661Z,969.55
2016-08-26T05:06:37.659Z,969.58
2016-08-26T05:07:37.660Z,969.58
2016-08-26T05:08:37.660Z,969.64
2016-08-26T05:09:37.659Z,969.66
2016-08-26T05:10:37.660Z,969.61
2016-08-26T05:11:37.665Z,969.63
2016-08-26T05:12:37.663Z,969.64
2016-08-26T05:13:37.672Z,969.64
2016-08-26T05:14:37.664Z,969.68
2016-08-26T05:15:37.663Z,969.63
2016-08-26T05:16:37.665Z,969.66
2016-08-26T05:17:37.668Z,969.7
2016-08-26T05:18:37.668Z,969.66
2016-08-26T05:19:37.667Z,969.69
2016-08-26T05:20:37.668Z,969.72
2016-08-26T05:21:37.671Z,969.73
2016-08-26T05:22:37.671Z,969.72
2016-08-26T05:23:37.673Z,969.71
2016-08-26T05:24:37.676Z,969.75
2016-08-26T05:25:37.677Z,969.68
2016-08-26T05:26:37.677Z,969.73
2016-08-26T05:27:37.680Z,969.76
2016-08-26T05:28:37.680Z,969.75
2016-08-26T05:29:37.683Z,969.71
2016-08-26T05:30:37.684Z,969.75
2016-08-26T05:31:37.684Z,969.76
2016-08-26T05:32:37.695Z,969.76
2016-08-26T05:33:37.690Z,969.78
2016-08-26T05:34:37.693Z,969.79
2016-08-26T05:35:37.693Z,969.78
2016-08-26T05:36:37.697Z,969.8
2016-08-26T05:37:37.696Z,969.77
2016-08-26T05:38:37.697Z,969.77
2016-08-26T05:39:37.700Z,969.8
2016-08-26T05:40:37.704Z,969.81
2016-08-26T05:41:37.705Z,969.78
2016-08-26T05:42:37.709Z,969.79
2016-08-26T05:43:37.707Z,969.8
2016-08-26T05:44:37.712Z,969.81
2016-08-26T05:45:37.713Z,969.79
2016-08-26T05:46:37.717Z,969.85
2016-08-26T05:47:37.721Z,969.81
2016-08-26T05:48:37.721Z,969.82
2016-08-26T05:49:37.725Z,969.85
2016-08-26T05:50:37.728Z,969.8
2016-08-26T05:51:37.732Z,969.84
2016-08-26T05:52:37.733Z,969.87
2016-08-26T05:53:37.737Z,969.88
2016-08-26T05:54:37.740Z,969.92
2016-08-26T05:55:37.745Z,969.87
2016-08-26T05:56:37.745Z,969.91
2016-08-26T05:57:37.749Z,969.86
2016-08-26T05:58:37.754Z,969.88
2016-08-26T05:59:37.757Z,969.9
2016-08-26T06:00:37.762Z,969.94
2016-08-26T06:01:37.765Z,969.9
2016-08-26T06:02:37.770Z,969.87
2016-08-26T06:03:37.769Z,969.86
2016-08-26T06:04:37.774Z,969.89
2016-08-26T06:05:37.778Z,969.86
2016-08-26T06:06:37.782Z,969.89
2016-08-26T06:07:37.785Z,969.91
2016-08-26T06:08:37.790Z,969.87
2016-08-26T06:09:37.794Z,969.92
2016-08-26T06:10:37.797Z,969.92
2016-08-26T06:11:37.802Z,969.93
2016-08-26T06:12:37.805Z,969.93
2016-08-26T06:13:37.809Z,969.91
2016-08-26T06:14:37.811Z,969.91
2016-08-26T06:15:37.818Z,969.93
2016-08-26T06:16:37.821Z,969.93
2016-08-26T06:17:37.822Z,969.95
2016-08-26T06:18:37.829Z,970
2016-08-26T06:19:37.833Z,969.98
2016-08-26T06:20:37.838Z,969.97
2016-08-26T06:21:37.842Z,969.98
2016-08-26T06:22:37.846Z,969.98
2016-08-26T06:23:37.850Z,970
2016-08-26T06:24:37.854Z,969.98
2016-08-26T06:25:37.858Z,970.01
2016-08-26T06:26:37.861Z,969.97
2016-08-26T06:27:37.870Z,970.01
2016-08-26T06:28:37.874Z,969.97
2016-08-26T06:29:37.877Z,969.99
2016-08-26T06:30:37.881Z,969.98
2016-08-26T06:31:37.887Z,969.94
2016-08-26T06:32:37.889Z,969.99
2016-08-26T06:33:37.893Z,969.95
2016-08-26T06:34:37.901Z,969.99
2016-08-26T06:35:37.905Z,969.96
2016-08-26T06:36:37.909Z,969.98
2016-08-26T06:37:37.914Z,970
2016-08-26T06:38:37.921Z,969.95
2016-08-26T06:39:37.925Z,969.98
2016-08-26T06:40:37.930Z,969.98
2016-08-26T06:41:37.937Z,970
2016-08-26T06:42:37.941Z,970.03
2016-08-26T06:43:37.947Z,969.95
2016-08-26T06:44:37.950Z,969.97
2016-08-26T06:45:37.957Z,969.97
2016-08-26T06:46:37.962Z,969.98
2016-08-26T06:47:37.966Z,969.98
2016-08-26T06:48:37.974Z,970.01
2016-08-26T06:49:37.978Z,970.01
2016-08-26T06:50:37.984Z,969.99
2016-08-26T06:51:37.986Z,969.98
2016-08-26T06:52:37.994Z,969.97
2016-08-26T06:53:37.997Z,970
2016-08-26T06:54:38.006Z,969.97
2016-08-26T06:55:38.014Z,969.97
2016-08-26T06:56:38.002Z,969.94
2016-08-26T06:57:38.010Z,969.98
2016-08-26T06:58:38.014Z,969.99
2016-08-26T06:59:38.022Z,969.98
2016-08-26T07:00:38.026Z,969.96
2016-08-26T07:01:38.034Z,969.95
2016-08-26T07:02:38.038Z,969.99
2016-08-26T07:03:38.046Z,969.97
2016-08-26T07:04:38.054Z,969.99
2016-08-26T07:05:38.058Z,969.99
2016-08-26T07:06:38.067Z,969.99
2016-08-26T07:07:38.070Z,969.99
2016-08-26T07:08:38.079Z,969.98
2016-08-26T07:09:38.086Z,970
2016-08-26T07:10:38.090Z,970.03
2016-08-26T07:11:38.099Z,970.02
2016-08-26T07:12:38.107Z,970.04
2016-08-26T07:13:38.111Z,970.02
2016-08-26T07:14:38.119Z,970.04
2016-08-26T07:15:38.128Z,970.05
2016-08-26T07:16:38.131Z,970.04
2016-08-26T07:17:38.139Z,970.02
2016-08-26T07:18:38.146Z,970.03
2016-08-26T07:19:38.155Z,970
2016-08-26T07:20:38.159Z,970.02
2016-08-26T07:21:38.167Z,970.01
2016-08-26T07:22:38.175Z,970.03
2016-08-26T07:23:38.183Z,970
2016-08-26T07:24:38.191Z,970.01
2016-08-26T07:25:38.196Z,970.04
2016-08-26T07:26:38.204Z,970.02
2016-08-26T07:27:38.211Z,970.07
2016-08-26T07:28:38.220Z,970.1
2016-08-26T07:29:38.228Z,970.1
2016-08-26T07:30:38.232Z,970.13
2016-08-26T07:31:38.240Z,970.12
2016-08-26T07:32:38.247Z,970.14
2016-08-26T07:33:38.256Z,970.16
2016-08-26T07:34:38.367Z,970.15
2016-08-26T07:35:38.268Z,970.14
2016-08-26T07:36:38.275Z,970.17
2016-08-26T07:37:38.284Z,970.19
2016-08-26T07:38:38.292Z,970.2
2016-08-26T07:39:38.300Z,970.22
2016-08-26T07:40:38.307Z,970.22
2016-08-26T07:41:38.315Z,970.23
2016-08-26T07:42:38.324Z,970.24
2016-08-26T07:43:38.331Z,970.24
2016-08-26T07:44:38.340Z,970.25
2016-08-26T07:45:38.344Z,970.26
2016-08-26T07:46:38.352Z,970.27
2016-08-26T07:47:38.360Z,970.26
2016-08-26T07:48:38.368Z,970.25
2016-08-26T07:49:38.376Z,970.28
2016-08-26T07:50:38.384Z,970.26
2016-08-26T07:51:38.393Z,970.26
2016-08-26T07:52:38.399Z,970.27
2016-08-26T07:53:38.407Z,970.27
2016-08-26T07:54:38.416Z,970.28
2016-08-26T07:55:38.424Z,970.22
2016-08-26T07:56:38.432Z,970.28
2016-08-26T07:57:38.440Z,970.26
2016-08-26T07:58:38.449Z,970.29
2016-08-26T07:59:38.456Z,970.26
2016-08-26T08:00:38.463Z,970.26
2016-08-26T08:01:38.472Z,970.3
2016-08-26T08:02:38.480Z,970.3
2016-08-26T08:03:38.488Z,970.27
2016-08-26T08:04:38.496Z,970.31
2016-08-26T08:05:38.505Z,970.26
2016-08-26T08:06:38.512Z,970.29
2016-08-26T08:07:38.521Z,970.27
2016-08-26T08:08:38.528Z,970.3
2016-08-26T08:09:38.536Z,970.25
2016-08-26T08:10:38.544Z,970.28
2016-08-26T08:11:38.552Z,970.33
2016-08-26T08:12:38.560Z,970.29
2016-08-26T08:13:38.571Z,970.33
2016-08-26T08:14:38.580Z,970.3
2016-08-26T08:15:38.588Z,970.27
2016-08-26T08:16:38.597Z,970.28
2016-08-26T08:17:38.604Z,970.25
2016-08-26T08:18:38.612Z,970.22
2016-08-26T08:19:38.621Z,970.25
2016-08-26T08:20:38.628Z,970.22
2016-08-26T08:21:38.636Z,970.21
2016-08-26T08:22:38.645Z,970.22
2016-08-26T08:23:38.653Z,970.21
2016-08-26T08:24:38.660Z,970.23
2016-08-26T08:25:38.668Z,970.22
2016-08-26T08:26:38.676Z,970.26
2016-08-26T08:27:38.694Z,970.26
2016-08-26T08:28:38.692Z,970.25
2016-08-26T08:29:38.699Z,970.25
2016-08-26T08:30:38.709Z,970.22
2016-08-26T08:31:38.717Z,970.22
2016-08-26T08:32:38.725Z,970.2
2016-08-26T08:33:38.732Z,970.19
2016-08-26T08:34:38.736Z,970.23
2016-08-26T08:35:38.749Z,970.21
2016-08-26T08:36:38.753Z,970.21
2016-08-26T08:37:38.760Z,970.26
2016-08-26T08:38:38.769Z,970.26
2016-08-26T08:39:38.777Z,970.23
2016-08-26T08:40:38.784Z,970.26
2016-08-26T08:41:38.792Z,970.28
2016-08-26T08:42:38.801Z,970.25
2016-08-26T08:43:38.808Z,970.25
2016-08-26T08:44:38.813Z,970.22
2016-08-26T08:45:38.821Z,970.25
2016-08-26T08:46:38.829Z,970.25
2016-08-26T08:47:38.837Z,970.2
2016-08-26T08:48:38.846Z,970.21
2016-08-26T08:49:38.853Z,970.24
2016-08-26T08:50:38.866Z,970.2
2016-08-26T08:51:38.865Z,970.25
2016-08-26T08:52:38.873Z,970.25
2016-08-26T08:53:38.881Z,970.21
2016-08-26T08:54:38.889Z,970.22
2016-08-26T08:55:38.893Z,970.26
2016-08-26T08:56:38.902Z,970.24
2016-08-26T08:57:38.909Z,970.27
2016-08-26T08:58:38.918Z,970.28
2016-08-26T08:59:38.921Z,970.25
2016-08-26T09:00:38.929Z,970.24
2016-08-26T09:01:38.938Z,970.24
2016-08-26T09:02:38.941Z,970.24
2016-08-26T09:03:38.950Z,970.23
2016-08-26T09:04:38.958Z,970.25
2016-08-26T09:05:38.966Z,970.25
2016-08-26T09:06:38.970Z,970.24
2016-08-26T09:07:38.978Z,970.26
2016-08-26T09:08:38.986Z,970.22
2016-08-26T09:09:38.990Z,970.28
2016-08-26T09:10:38.998Z,970.27
2016-08-26T09:11:39.006Z,970.25
2016-08-26T09:12:39.010Z,970.23
2016-08-26T09:13:39.018Z,970.26
2016-08-26T09:14:39.022Z,970.26
2016-08-26T09:15:39.030Z,970.25
2016-08-26T09:16:39.038Z,970.26
2016-08-26T09:17:39.041Z,970.21
2016-08-26T09:18:39.051Z,970.26
2016-08-26T09:19:39.054Z,970.26
2016-08-26T09:20:39.062Z,970.26
2016-08-26T09:21:39.065Z,970.25
2016-08-26T09:22:39.074Z,970.26
2016-08-26T09:23:39.078Z,970.3
2016-08-26T09:24:39.086Z,970.31
2016-08-26T09:25:39.090Z,970.28
2016-08-26T09:26:39.098Z,970.26
2016-08-26T09:27:39.103Z,970.28
2016-08-26T09:28:39.110Z,970.28
2016-08-26T09:29:39.114Z,970.29
2016-08-26T09:30:39.122Z,970.3
2016-08-26T09:31:39.133Z,970.3
2016-08-26T09:32:39.130Z,970.28
2016-08-26T09:33:39.139Z,970.23
2016-08-26T09:34:39.243Z,970.28
2016-08-26T09:35:39.150Z,970.28
2016-08-26T09:36:39.155Z,970.27
2016-08-26T09:37:39.162Z,970.25
2016-08-26T09:38:39.166Z,970.21
2016-08-26T09:39:39.778Z,970.25
2016-08-26T09:42:29.539Z,970.22
